Current | Forecast
Updated: 4:30 PM MSK on May 25, 2017
Observed at Krasnodar, Russia
Temperature 63°F
Humidity 59%
Dew Point 48°F
Wind North at 4 mph
Pressure 30.06 in (Steady)
Conditions Unknown
Visibility 6.2 miles
UV N/A
Clouds
Yesterday's Maximum 57°F
Yesterday's Minimum 52°F approx.
Yesterday's Heating Degree Days 11 approx.
Sunrise4:43 AM MSK
Sunset7:55 PM MSK
Moon Rise4:43 AM MSK
Moon Set7:19 PM MSK
Moon PhaseMoon Phase
Waning Crescent
Raw METARMETAR URKK 251330Z 35002MPS 250V060 9999 FEW///CB 17/09 Q1018 R23C/CLRD60 NOSIG RMK QFE760


Monday
. High: 71° F.
Tuesday
. High: 60° F.
Wednesday
. High: 64° F.
Thursday
. High: 64° F.
Friday
. High: 68° F.
Saturday
. High: 66° F.
Sunday
. High: 68° F.
Monday
. High: 68° F.

Units: English | Metric

Find the Weather for any City, State or Zipcode, or Country:

U.S. State List | Severe Weather | Tropical Storms | Ski Conditions
United States | Canada | Central America | South America | Asia | Europe | Australia | Africa | Islands

Weather Underground

© Copyright 2017
The Weather Company, LLC